createdAt,value
2018-05-09T00:02:20.634Z,20.52
2018-05-09T00:04:48.754Z,20.52
2018-05-09T00:07:16.884Z,20.41
2018-05-09T00:09:44.993Z,20.43
2018-05-09T00:12:13.135Z,20.52
2018-05-09T00:14:41.265Z,20.47
2018-05-09T00:17:09.377Z,20.46
2018-05-09T00:19:37.474Z,20.46
2018-05-09T00:22:05.627Z,20.43
2018-05-09T00:24:33.755Z,20.41
2018-05-09T00:27:01.889Z,20.32
2018-05-09T00:29:30.014Z,20.35
2018-05-09T00:31:58.112Z,20.27
2018-05-09T00:34:26.247Z,20.18
2018-05-09T00:36:54.373Z,20.19
2018-05-09T00:39:22.511Z,20.10
2018-05-09T00:41:50.745Z,20.10
2018-05-09T00:44:18.800Z,20.11
2018-05-09T00:46:46.910Z,20.13
2018-05-09T00:49:15.224Z,20.02
2018-05-09T00:51:43.337Z,19.93
2018-05-09T00:54:23.347Z,19.75
2018-05-09T00:56:51.458Z,19.72
2018-05-09T00:59:20.089Z,19.74
2018-05-09T01:01:48.190Z,19.81
2018-05-09T01:04:16.314Z,19.70
2018-05-09T01:06:44.438Z,19.60
2018-05-09T01:09:12.531Z,19.53
2018-05-09T01:11:41.248Z,19.50
2018-05-09T01:14:09.361Z,19.50
2018-05-09T01:16:37.569Z,19.54
2018-05-09T01:19:05.792Z,19.45
2018-05-09T01:21:33.945Z,19.48
2018-05-09T01:24:02.053Z,19.45
2018-05-09T01:26:30.188Z,19.47
2018-05-09T01:28:58.297Z,19.41
2018-05-09T01:31:26.446Z,19.38
2018-05-09T01:33:54.601Z,19.35
2018-05-09T01:36:22.705Z,19.28
2018-05-09T01:38:50.911Z,19.09
2018-05-09T01:41:19.090Z,19.00
2018-05-09T01:43:50.859Z,18.90
2018-05-09T01:46:18.978Z,18.95
2018-05-09T01:48:47.074Z,18.94
2018-05-09T01:51:15.196Z,18.99
2018-05-09T01:53:43.321Z,18.95
2018-05-09T01:56:11.456Z,18.93
2018-05-09T01:58:39.594Z,18.81
2018-05-09T02:01:07.697Z,18.73
2018-05-09T02:03:35.858Z,18.71
2018-05-09T02:06:04.064Z,18.70
2018-05-09T02:08:32.127Z,18.67
2018-05-09T02:11:00.252Z,18.61
2018-05-09T02:13:28.388Z,18.49
2018-05-09T02:15:56.549Z,18.45
2018-05-09T02:18:24.672Z,18.45
2018-05-09T02:20:52.803Z,18.44
2018-05-09T02:23:21.134Z,18.44
2018-05-09T02:25:52.984Z,18.39
2018-05-09T02:28:21.096Z,18.36
2018-05-09T02:30:49.225Z,18.02
2018-05-09T02:33:17.323Z,18.07
2018-05-09T02:35:47.352Z,18.12
2018-05-09T02:38:15.489Z,18.11
2018-05-09T02:40:43.608Z,18.08
2018-05-09T02:43:11.721Z,17.99
2018-05-09T02:45:39.846Z,18.01
2018-05-09T02:48:07.977Z,18.01
2018-05-09T02:50:36.097Z,17.97
2018-05-09T02:53:04.232Z,17.95
2018-05-09T02:55:32.480Z,17.92
2018-05-09T02:58:00.597Z,17.84
2018-05-09T03:00:28.744Z,17.80
2018-05-09T03:02:56.852Z,17.76
2018-05-09T03:05:24.974Z,17.73
2018-05-09T03:07:53.116Z,17.75
2018-05-09T03:10:21.226Z,17.73
2018-05-09T03:12:49.351Z,17.69
2018-05-09T03:15:17.474Z,17.66
2018-05-09T03:17:45.625Z,17.63
2018-05-09T03:20:13.768Z,17.60
2018-05-09T03:22:41.877Z,17.57
2018-05-09T03:25:10.002Z,17.64
2018-05-09T03:27:41.198Z,17.63
2018-05-09T03:30:09.840Z,17.60
2018-05-09T03:32:38.000Z,17.57
2018-05-09T03:35:06.117Z,17.48
2018-05-09T03:37:34.298Z,17.42
2018-05-09T03:40:02.405Z,17.36
2018-05-09T03:42:30.513Z,17.32
2018-05-09T03:44:58.633Z,17.28
2018-05-09T03:47:26.765Z,17.26
2018-05-09T03:49:54.888Z,17.28
2018-05-09T03:52:23.013Z,17.30
2018-05-09T03:54:51.172Z,17.28
2018-05-09T03:57:19.296Z,17.23
2018-05-09T03:59:47.436Z,17.25
2018-05-09T04:02:27.391Z,17.23
2018-05-09T04:05:07.285Z,17.24
2018-05-09T04:07:47.196Z,17.22
2018-05-09T04:10:15.299Z,17.24
2018-05-09T04:12:43.412Z,17.22
2018-05-09T04:15:11.569Z,17.23
2018-05-09T04:17:39.719Z,17.25
2018-05-09T04:20:07.817Z,17.25
2018-05-09T04:22:35.972Z,17.22
2018-05-09T04:25:04.123Z,17.23
2018-05-09T04:27:32.245Z,17.23
2018-05-09T04:30:04.232Z,17.22
2018-05-09T04:32:32.565Z,17.23
2018-05-09T04:35:00.680Z,17.23
2018-05-09T04:37:28.816Z,17.27
2018-05-09T04:39:56.910Z,17.25
2018-05-09T04:42:25.045Z,17.24
2018-05-09T04:44:53.186Z,17.21
2018-05-09T04:47:21.287Z,17.28
2018-05-09T04:49:49.428Z,17.29
2018-05-09T04:52:17.537Z,17.30
2018-05-09T04:54:45.651Z,17.34
2018-05-09T04:57:13.767Z,17.36
2018-05-09T04:59:41.907Z,17.42
2018-05-09T05:02:10.032Z,17.42
2018-05-09T05:04:38.190Z,17.43
2018-05-09T05:07:06.281Z,17.49
2018-05-09T05:09:34.430Z,17.52
2018-05-09T05:12:02.755Z,17.54
2018-05-09T05:14:30.895Z,17.62
2018-05-09T05:16:59.022Z,17.65
2018-05-09T05:19:27.535Z,17.66
2018-05-09T05:21:55.676Z,17.71
2018-05-09T05:24:23.824Z,17.79
2018-05-09T05:26:51.970Z,17.85
2018-05-09T05:29:20.348Z,17.86
2018-05-09T05:31:48.494Z,17.90
2018-05-09T05:34:16.617Z,17.95
2018-05-09T05:36:44.757Z,18.00
2018-05-09T05:39:12.859Z,18.00
2018-05-09T05:41:41.085Z,18.01
2018-05-09T05:44:09.201Z,18.14
2018-05-09T05:46:37.328Z,18.19
2018-05-09T05:49:05.465Z,18.28
2018-05-09T05:51:33.593Z,18.35
2018-05-09T05:54:01.712Z,18.41
2018-05-09T05:56:36.031Z,18.44
2018-05-09T05:59:04.157Z,18.41
2018-05-09T06:01:32.300Z,18.44
2018-05-09T06:04:00.408Z,18.50
2018-05-09T06:06:28.599Z,18.59
2018-05-09T06:08:56.673Z,18.65
2018-05-09T06:11:24.796Z,18.67
2018-05-09T06:13:52.913Z,18.69
2018-05-09T06:16:21.047Z,18.80
2018-05-09T06:18:49.184Z,18.81
2018-05-09T06:21:17.302Z,18.87
2018-05-09T06:23:45.443Z,18.82
2018-05-09T06:26:13.580Z,18.87
2018-05-09T06:28:41.697Z,18.98
2018-05-09T06:31:09.817Z,19.07
2018-05-09T06:33:37.945Z,19.15
2018-05-09T06:36:06.126Z,19.16
2018-05-09T06:38:34.338Z,19.23
2018-05-09T06:41:02.549Z,19.29
2018-05-09T06:43:30.739Z,19.36
2018-05-09T06:45:58.865Z,19.44
2018-05-09T06:48:26.988Z,19.61
2018-05-09T06:50:55.090Z,19.68
2018-05-09T06:53:23.246Z,19.84
2018-05-09T06:55:51.362Z,19.90
2018-05-09T06:58:19.482Z,20.04
2018-05-09T07:00:47.597Z,20.11
2018-05-09T07:03:15.706Z,20.24
2018-05-09T07:05:43.848Z,20.34
2018-05-09T07:08:11.966Z,20.35
2018-05-09T07:10:40.098Z,20.36
2018-05-09T07:13:08.226Z,20.35
2018-05-09T07:15:36.339Z,20.39
2018-05-09T07:18:04.461Z,20.47
2018-05-09T07:20:32.590Z,20.52
2018-05-09T07:23:00.692Z,20.60
2018-05-09T07:25:28.832Z,20.63
2018-05-09T07:27:56.949Z,20.69
2018-05-09T07:30:25.066Z,20.78
2018-05-09T07:32:53.189Z,20.83
2018-05-09T07:35:21.330Z,20.86
2018-05-09T07:37:49.433Z,20.91
2018-05-09T07:40:17.576Z,20.97
2018-05-09T07:42:45.680Z,21.06
2018-05-09T07:45:13.778Z,21.13
2018-05-09T07:47:42.008Z,21.25
2018-05-09T07:50:10.038Z,21.31
2018-05-09T07:52:38.157Z,21.38
2018-05-09T07:55:06.278Z,21.49
2018-05-09T07:57:34.807Z,21.49
2018-05-09T08:00:02.960Z,21.48
2018-05-09T08:02:31.144Z,21.51
2018-05-09T08:04:59.261Z,21.58
2018-05-09T08:07:27.381Z,21.65
2018-05-09T08:09:55.495Z,21.75
2018-05-09T08:12:23.625Z,21.81
2018-05-09T08:14:51.741Z,21.89
2018-05-09T08:17:19.850Z,21.97
2018-05-09T08:19:47.984Z,22.05
2018-05-09T08:22:16.116Z,22.10
2018-05-09T08:24:44.222Z,22.09
2018-05-09T08:27:12.390Z,22.12
2018-05-09T08:29:40.521Z,22.28
2018-05-09T08:32:08.637Z,22.18
2018-05-09T08:34:36.760Z,22.11
2018-05-09T08:37:04.896Z,22.14
2018-05-09T08:39:33.009Z,22.13
2018-05-09T08:42:01.124Z,22.19
2018-05-09T08:44:29.223Z,22.28
2018-05-09T08:46:57.356Z,22.30
2018-05-09T08:49:25.539Z,22.37
2018-05-09T08:51:53.615Z,22.58
2018-05-09T08:54:21.738Z,22.43
2018-05-09T08:56:49.868Z,22.39
2018-05-09T08:59:18.116Z,22.62
2018-05-09T09:01:46.242Z,22.65
2018-05-09T09:04:14.375Z,22.65
2018-05-09T09:06:42.486Z,22.78
2018-05-09T09:09:10.593Z,22.80
2018-05-09T09:11:38.713Z,22.86
2018-05-09T09:14:06.833Z,22.77
2018-05-09T09:16:34.957Z,22.98
2018-05-09T09:19:03.071Z,23.02
2018-05-09T09:21:31.194Z,22.96
2018-05-09T09:23:59.308Z,22.99
2018-05-09T09:26:27.437Z,22.88
2018-05-09T09:28:55.561Z,23.10
2018-05-09T09:31:23.668Z,23.12
2018-05-09T09:33:51.789Z,23.21
2018-05-09T09:36:19.939Z,23.15
2018-05-09T09:38:48.043Z,23.24
2018-05-09T09:41:16.150Z,23.35
2018-05-09T09:43:44.364Z,23.48
2018-05-09T09:46:12.563Z,23.46
2018-05-09T09:48:40.744Z,23.41
2018-05-09T09:51:08.909Z,23.55
2018-05-09T09:53:37.092Z,23.51
2018-05-09T09:56:05.710Z,23.51
2018-05-09T09:58:33.876Z,23.57
2018-05-09T10:01:02.037Z,23.89
2018-05-09T10:03:30.218Z,24.18
2018-05-09T10:05:58.325Z,24.09
2018-05-09T10:08:26.457Z,24.13
2018-05-09T10:10:54.593Z,23.97
2018-05-09T10:13:22.729Z,24.00
2018-05-09T10:15:50.831Z,24.04
2018-05-09T10:18:18.975Z,24.20
2018-05-09T10:20:47.070Z,24.19
2018-05-09T10:23:15.186Z,24.15
2018-05-09T10:25:43.319Z,24.15
2018-05-09T10:28:11.445Z,24.11
2018-05-09T10:30:39.565Z,24.38
2018-05-09T10:33:07.682Z,24.63
2018-05-09T10:35:35.801Z,24.66
2018-05-09T10:38:03.945Z,24.50
2018-05-09T10:40:32.065Z,24.42
2018-05-09T10:43:00.182Z,24.61
2018-05-09T10:45:28.309Z,24.60
2018-05-09T10:47:56.406Z,24.70
2018-05-09T10:50:24.538Z,24.65
2018-05-09T10:52:52.650Z,24.96
2018-05-09T10:55:20.782Z,24.92
2018-05-09T10:57:48.922Z,24.95
2018-05-09T11:00:17.042Z,24.98
2018-05-09T11:02:45.149Z,25.13
2018-05-09T11:05:13.370Z,25.32
2018-05-09T11:07:41.935Z,25.36
2018-05-09T11:10:13.242Z,25.20
2018-05-09T11:12:41.450Z,25.38
2018-05-09T11:15:09.565Z,25.24
2018-05-09T11:17:37.781Z,25.25
2018-05-09T11:20:05.824Z,25.44
2018-05-09T11:22:33.928Z,25.66
2018-05-09T11:25:02.045Z,25.51
2018-05-09T11:27:30.154Z,25.38
2018-05-09T11:29:58.308Z,25.56
2018-05-09T11:32:26.429Z,25.62
2018-05-09T11:34:54.526Z,25.88
2018-05-09T11:37:22.722Z,26.06
2018-05-09T11:39:50.750Z,25.92
2018-05-09T11:42:18.885Z,25.83
2018-05-09T11:44:47.062Z,25.85
2018-05-09T11:47:15.136Z,26.03
2018-05-09T11:49:43.249Z,26.30
2018-05-09T11:52:11.387Z,26.12
2018-05-09T11:54:39.518Z,26.23
2018-05-09T11:57:07.643Z,26.12
2018-05-09T11:59:35.762Z,26.26
2018-05-09T12:02:03.916Z,26.56
2018-05-09T12:04:32.043Z,26.47
2018-05-09T12:07:00.172Z,26.54
2018-05-09T12:09:28.298Z,26.53
2018-05-09T12:11:56.417Z,26.44
2018-05-09T12:14:24.527Z,26.39
2018-05-09T12:16:52.654Z,26.65
2018-05-09T12:19:20.864Z,26.82
2018-05-09T12:21:48.985Z,26.91
2018-05-09T12:24:20.236Z,26.79
2018-05-09T12:26:48.345Z,27.00
2018-05-09T12:29:16.473Z,27.00
2018-05-09T12:31:44.604Z,26.84
2018-05-09T12:34:12.729Z,26.83
2018-05-09T12:36:40.849Z,26.73
2018-05-09T12:39:08.987Z,26.90
2018-05-09T12:41:37.098Z,26.95
2018-05-09T12:44:05.328Z,27.12
2018-05-09T12:46:33.594Z,27.29
2018-05-09T12:49:01.735Z,27.20
2018-05-09T12:51:29.844Z,27.06
2018-05-09T12:53:57.977Z,27.50
2018-05-09T12:56:26.116Z,27.29
2018-05-09T12:58:54.228Z,27.27
2018-05-09T13:01:22.351Z,27.23
2018-05-09T13:03:50.455Z,27.37
2018-05-09T13:06:18.577Z,27.70
2018-05-09T13:08:46.704Z,27.65
2018-05-09T13:11:14.812Z,27.78
2018-05-09T13:13:46.504Z,27.58
2018-05-09T13:16:14.623Z,27.24
2018-05-09T13:18:42.758Z,27.34
2018-05-09T13:21:10.886Z,27.52
2018-05-09T13:23:38.986Z,27.59
2018-05-09T13:26:07.117Z,27.53
2018-05-09T13:28:35.233Z,27.09
2018-05-09T13:31:03.356Z,27.08
2018-05-09T13:33:31.493Z,27.07
2018-05-09T13:35:59.609Z,27.17
2018-05-09T13:38:27.708Z,27.46
2018-05-09T13:40:55.815Z,27.48
2018-05-09T13:43:24.830Z,27.63
2018-05-09T13:45:52.954Z,27.67
2018-05-09T13:48:21.050Z,27.15
2018-05-09T13:50:49.173Z,26.94
2018-05-09T13:53:17.296Z,27.18
2018-05-09T13:55:45.426Z,27.39
2018-05-09T13:58:13.538Z,27.37
2018-05-09T14:00:41.660Z,27.34
2018-05-09T14:03:09.798Z,27.31
2018-05-09T14:05:37.928Z,27.03
2018-05-09T14:08:06.055Z,26.96
2018-05-09T14:10:34.173Z,26.97
2018-05-09T14:13:02.319Z,26.83
2018-05-09T14:15:30.482Z,26.68
2018-05-09T14:17:58.569Z,26.51
2018-05-09T14:20:26.704Z,26.38
2018-05-09T14:22:54.833Z,26.48
2018-05-09T14:25:22.956Z,26.61
2018-05-09T14:27:51.062Z,26.57
2018-05-09T14:30:19.166Z,26.74
2018-05-09T14:32:47.311Z,26.73
2018-05-09T14:35:15.501Z,26.99
2018-05-09T14:37:43.591Z,27.18
2018-05-09T14:40:11.713Z,27.09
2018-05-09T14:42:39.815Z,27.13
2018-05-09T14:45:07.934Z,27.18
2018-05-09T14:47:36.073Z,27.22
2018-05-09T14:50:04.186Z,27.21
2018-05-09T14:52:32.316Z,27.15
2018-05-09T14:55:00.427Z,27.14
2018-05-09T14:57:28.560Z,27.06
2018-05-09T14:59:57.091Z,27.12
2018-05-09T15:02:25.244Z,27.20
2018-05-09T15:04:53.383Z,27.24
2018-05-09T15:07:21.589Z,27.19
2018-05-09T15:09:49.731Z,27.17
2018-05-09T15:12:17.844Z,27.32
2018-05-09T15:14:45.969Z,27.46
2018-05-09T15:17:14.085Z,27.45
2018-05-09T15:19:43.137Z,27.34
2018-05-09T15:22:11.136Z,27.41
2018-05-09T15:24:39.246Z,27.67
2018-05-09T15:27:07.379Z,27.55
2018-05-09T15:29:35.509Z,27.45
2018-05-09T15:32:03.625Z,27.43
2018-05-09T15:34:31.730Z,27.51
2018-05-09T15:37:00.081Z,27.29
2018-05-09T15:39:28.208Z,27.21
2018-05-09T15:41:56.352Z,27.35
2018-05-09T15:44:24.475Z,27.37
2018-05-09T15:46:52.575Z,27.23
2018-05-09T15:49:20.866Z,27.22
2018-05-09T15:51:49.219Z,27.48
2018-05-09T15:54:17.327Z,27.49
2018-05-09T15:56:45.475Z,27.35
2018-05-09T15:59:13.676Z,27.30
2018-05-09T16:01:41.801Z,27.46
2018-05-09T16:04:09.926Z,27.35
2018-05-09T16:06:38.075Z,27.05
2018-05-09T16:09:06.192Z,26.95
2018-05-09T16:11:34.321Z,26.83
2018-05-09T16:14:02.453Z,26.75
2018-05-09T16:16:30.559Z,26.73
2018-05-09T16:18:58.681Z,26.86
2018-05-09T16:21:26.836Z,26.91
2018-05-09T16:23:54.976Z,26.94
2018-05-09T16:26:23.084Z,26.92
2018-05-09T16:28:51.218Z,26.89
2018-05-09T16:31:19.446Z,26.92
2018-05-09T16:33:47.597Z,26.76
2018-05-09T16:36:15.856Z,26.60
2018-05-09T16:38:43.892Z,26.51
2018-05-09T16:41:12.018Z,26.45
2018-05-09T16:43:40.319Z,26.38
2018-05-09T16:46:08.418Z,26.42
2018-05-09T16:48:36.556Z,26.41
2018-05-09T16:51:04.685Z,26.36
2018-05-09T16:53:32.796Z,26.29
2018-05-09T16:56:00.912Z,26.15
2018-05-09T16:58:29.232Z,26.04
2018-05-09T17:00:57.363Z,26.01
2018-05-09T17:03:25.466Z,25.93
2018-05-09T17:05:53.589Z,25.81
2018-05-09T17:08:21.695Z,25.69
2018-05-09T17:10:49.827Z,25.62
2018-05-09T17:13:18.161Z,25.55
2018-05-09T17:15:46.278Z,25.45
2018-05-09T17:18:14.392Z,25.37
2018-05-09T17:20:42.535Z,25.35
2018-05-09T17:23:10.627Z,25.33
2018-05-09T17:25:38.764Z,25.30
2018-05-09T17:28:06.889Z,25.26
2018-05-09T17:30:35.021Z,25.18
2018-05-09T17:33:03.121Z,25.13
2018-05-09T17:35:31.268Z,25.09
2018-05-09T17:37:59.376Z,25.02
2018-05-09T17:40:27.490Z,24.99
2018-05-09T17:42:55.615Z,24.95
2018-05-09T17:45:23.719Z,24.89
2018-05-09T17:47:51.826Z,24.82
2018-05-09T17:50:19.957Z,24.77
2018-05-09T17:52:48.088Z,24.71
2018-05-09T17:55:16.190Z,24.67
2018-05-09T17:57:44.335Z,24.63
2018-05-09T18:00:12.463Z,24.60
2018-05-09T18:02:40.590Z,24.56
2018-05-09T18:05:08.726Z,24.52
2018-05-09T18:07:36.831Z,24.50
2018-05-09T18:10:04.945Z,24.47
2018-05-09T18:12:33.096Z,24.43
2018-05-09T18:15:01.256Z,24.39
2018-05-09T18:17:29.365Z,24.33
2018-05-09T18:19:59.643Z,24.29
2018-05-09T18:22:27.824Z,24.24
2018-05-09T18:24:55.967Z,24.18
2018-05-09T18:27:24.088Z,24.14
2018-05-09T18:29:52.204Z,24.09
2018-05-09T18:32:20.306Z,24.06
2018-05-09T18:34:48.445Z,24.00
2018-05-09T18:37:16.575Z,23.95
2018-05-09T18:39:44.711Z,23.91
2018-05-09T18:42:12.816Z,23.88
2018-05-09T18:44:40.926Z,23.85
2018-05-09T18:47:09.045Z,23.81
2018-05-09T18:49:37.425Z,23.78
2018-05-09T18:52:08.465Z,23.76
2018-05-09T18:54:36.978Z,23.71
2018-05-09T18:57:05.122Z,23.61
2018-05-09T18:59:33.245Z,23.58
2018-05-09T19:02:01.373Z,23.58
2018-05-09T19:04:29.487Z,23.56
2018-05-09T19:07:00.873Z,23.53
2018-05-09T19:09:29.006Z,23.50
2018-05-09T19:11:57.512Z,23.45
2018-05-09T19:14:25.710Z,23.41
2018-05-09T19:16:53.835Z,23.38
2018-05-09T19:19:21.970Z,23.35
2018-05-09T19:21:50.171Z,23.32
2018-05-09T19:24:18.350Z,23.30
2018-05-09T19:26:46.555Z,23.28
2018-05-09T19:29:14.837Z,23.23
2018-05-09T19:31:42.995Z,23.19
2018-05-09T19:34:14.548Z,23.22
2018-05-09T19:36:42.686Z,23.17
2018-05-09T19:39:10.821Z,23.02
2018-05-09T19:41:39.173Z,23.06
2018-05-09T19:44:07.091Z,23.17
2018-05-09T19:46:35.215Z,23.24
2018-05-09T19:49:04.121Z,23.22
2018-05-09T19:51:32.264Z,23.19
2018-05-09T19:54:00.380Z,23.09
2018-05-09T19:56:28.531Z,22.92
2018-05-09T19:58:56.709Z,22.83
2018-05-09T20:01:24.855Z,22.84
2018-05-09T20:03:52.974Z,22.89
2018-05-09T20:06:21.097Z,22.94
2018-05-09T20:08:49.228Z,22.98
2018-05-09T20:11:17.380Z,23.09
2018-05-09T20:13:45.528Z,23.14
2018-05-09T20:16:14.888Z,22.98
2018-05-09T20:18:43.022Z,22.90
2018-05-09T20:21:11.433Z,22.93
2018-05-09T20:23:40.855Z,22.96
2018-05-09T20:26:09.060Z,22.94
2018-05-09T20:28:46.194Z,22.94
2018-05-09T20:31:32.139Z,22.97
2018-05-09T20:34:00.256Z,22.92
2018-05-09T20:36:28.417Z,22.93
2018-05-09T20:38:57.901Z,22.98
2018-05-09T20:41:26.081Z,23.00
2018-05-09T20:43:54.186Z,23.02
2018-05-09T20:46:22.330Z,22.96
2018-05-09T20:48:50.474Z,22.88
2018-05-09T20:51:34.054Z,22.80
2018-05-09T20:54:02.209Z,22.71
2018-05-09T20:56:30.350Z,22.64
2018-05-09T20:58:58.543Z,22.57
2018-05-09T21:01:38.395Z,22.58
2018-05-09T21:04:06.518Z,22.54
2018-05-09T21:06:34.635Z,22.49
2018-05-09T21:09:02.847Z,22.41
2018-05-09T21:11:31.165Z,22.40
2018-05-09T21:13:59.297Z,22.32
2018-05-09T21:16:27.422Z,22.29
2018-05-09T21:18:56.469Z,22.35
2018-05-09T21:21:28.183Z,22.40
2018-05-09T21:23:56.334Z,22.49
2018-05-09T21:26:24.481Z,22.55
2018-05-09T21:28:52.895Z,22.55
2018-05-09T21:31:22.035Z,22.54
2018-05-09T21:33:50.421Z,22.54
2018-05-09T21:36:18.607Z,22.53
2018-05-09T21:38:46.727Z,22.51
2018-05-09T21:41:14.883Z,22.48
2018-05-09T21:43:43.134Z,22.50
2018-05-09T21:46:11.316Z,22.47
2018-05-09T21:48:39.532Z,22.46
2018-05-09T21:51:07.657Z,22.46
2018-05-09T21:53:35.785Z,22.39
2018-05-09T21:56:04.085Z,22.39
2018-05-09T21:58:32.115Z,22.37
2018-05-09T22:01:00.237Z,22.39
2018-05-09T22:03:28.463Z,22.39
2018-05-09T22:05:56.593Z,22.38
2018-05-09T22:08:24.721Z,22.37
2018-05-09T22:10:53.049Z,22.29
2018-05-09T22:13:21.011Z,22.22
2018-05-09T22:15:49.137Z,22.23
2018-05-09T22:18:17.295Z,22.22
2018-05-09T22:20:45.426Z,22.11
2018-05-09T22:23:13.572Z,22.02
2018-05-09T22:25:41.907Z,22.06
2018-05-09T22:28:10.060Z,21.98
2018-05-09T22:30:38.177Z,22.01
2018-05-09T22:33:06.321Z,22.00
2018-05-09T22:35:34.461Z,21.97
2018-05-09T22:38:02.591Z,21.95
2018-05-09T22:40:30.755Z,21.95
2018-05-09T22:42:58.859Z,21.94
2018-05-09T22:45:27.001Z,21.91
2018-05-09T22:47:55.193Z,21.92
2018-05-09T22:50:23.418Z,21.92
2018-05-09T22:52:51.528Z,21.93
2018-05-09T22:55:19.669Z,21.85
2018-05-09T22:57:47.809Z,21.63
2018-05-09T23:00:15.925Z,21.50
2018-05-09T23:02:44.051Z,21.30
2018-05-09T23:05:12.167Z,21.15
2018-05-09T23:07:40.285Z,21.16
2018-05-09T23:10:08.451Z,21.21
2018-05-09T23:12:36.542Z,21.32
2018-05-09T23:15:04.654Z,21.27
2018-05-09T23:17:32.818Z,21.27
2018-05-09T23:20:00.906Z,21.22
2018-05-09T23:22:29.019Z,21.19
2018-05-09T23:24:57.378Z,20.99
2018-05-09T23:27:25.521Z,20.96
2018-05-09T23:29:53.659Z,20.92
2018-05-09T23:32:21.978Z,20.95
2018-05-09T23:34:50.083Z,21.05
2018-05-09T23:37:18.209Z,20.95
2018-05-09T23:39:46.363Z,20.82
2018-05-09T23:42:14.471Z,20.78
2018-05-09T23:44:42.601Z,20.90
2018-05-09T23:47:10.740Z,20.71
2018-05-09T23:49:38.889Z,20.53
2018-05-09T23:52:07.076Z,20.52
2018-05-09T23:54:35.145Z,20.34
2018-05-09T23:57:03.272Z,20.54
2018-05-09T23:59:31.383Z,20.63
